Comet Ace — H3AM — position and weather

sailwx.info

Track history (hours):
 
Tides and Currents Weather Stations Pressure Air Temp Water Temp Dewpoint Dewpoint Depression Visibility Wind Speed Wind Dir Waves Ship Positions

Comet Ace

Last reported at 2018-Jan-19 14:37 UTC. Time now 2018-Jan-23 00:05 UTC.
Position N 35°00' E 140°26'.

Length 175 m; draft 6.7 m.

Type: Cargo ship. MMSI: 351757000.

Date/timePositionNaut miles runAvg speedWind from/ knotsBaromVisibWave heightAir tempDewpointWater temp
2018-Jan-19 14:37N 35°00' E 140°26'414.5
2018-Jan-19 14:20N 34°58' E 140°22'514.9
2018-Jan-19 14:00N 34°56' E 140°16'814.8
2018-Jan-19 13:29N 34°53' E 140°08'714.2
2018-Jan-19 12:59N 34°49' E 140°00'613.4
2018-Jan-19 12:30N 34°47' E 139°53'713.2
2018-Jan-19 12:00N 34°46' E 139°45'714.6
2018-Jan-19 11:30N 34°53' E 139°41'714.2
2018-Jan-19 11:00N 34°60' E 139°40'714.9
2018-Jan-19 10:30N 35°07' E 139°43'612.3
2018-Jan-19 10:01N 35°12' E 139°46'510.1
2018-Jan-19 09:30N 35°17' E 139°45'611.7
2018-Jan-19 09:01N 35°23' E 139°42'3 5.5
2018-Jan-19 08:31N 35°25' E 139°41'0 0.4
2018-Jan-19 08:00N 35°25' E 139°41'0 0.0
2018-Jan-19 07:30N 35°25' E 139°41'0 0.0
2018-Jan-19 07:00N 35°25' E 139°41'0 0.0
2018-Jan-19 06:30N 35°25' E 139°41'0 0.0
2018-Jan-19 06:00N 35°25' E 139°41'0 0.0
2018-Jan-19 05:30N 35°25' E 139°41'0 0.0
2018-Jan-19 04:57N 35°25' E 139°41'0 0.0
2018-Jan-19 04:30N 35°25' E 139°41'0 0.0
2018-Jan-19 04:00N 35°25' E 139°41'0 0.0
2018-Jan-19 03:30N 35°25' E 139°41'0 0.0
2018-Jan-19 03:00N 35°25' E 139°41'0 0.0
2018-Jan-19 02:30N 35°25' E 139°41'0 0.0
2018-Jan-19 02:00N 35°25' E 139°41'0 0.0
2018-Jan-19 01:30N 35°25' E 139°41'0 0.0
2018-Jan-19 01:00N 35°25' E 139°41'0 0.0
2018-Jan-19 00:30N 35°25' E 139°41'0 0.0
2018-Jan-18 23:57N 35°25' E 139°41'0 0.0
2018-Jan-18 23:30N 35°25' E 139°41'0 0.0
2018-Jan-18 23:00N 35°25' E 139°41'0 0.1
2018-Jan-18 22:30N 35°25' E 139°41'2 4.8
2018-Jan-18 22:00N 35°24' E 139°43'510.4
2018-Jan-18 21:30N 35°18' E 139°44'611.4
2018-Jan-18 21:00N 35°13' E 139°47'4 9.0
2018-Jan-18 20:30N 35°09' E 139°46'510.6
2018-Jan-18 20:00N 35°04' E 139°45'611.1
2018-Jan-18 19:30N 34°58' E 139°43'815.7
2018-Jan-18 19:00N 34°52' E 139°48'7 8.6
2018-Jan-18 18:14N 34°48' E 139°55'4 8.5
2018-Jan-18 17:46N 34°49' E 140°00'415.9
2018-Jan-18 17:30N 34°50' E 140°05'915.1
2018-Jan-18 16:56N 34°50' E 140°15'3 6.0
2018-Jan-18 16:27N 34°50' E 140°12'714.7
2018-Jan-18 15:58N 34°51' E 140°20'  
Track history (hours):
 
Tides and Currents Weather Stations Pressure Air Temp Water Temp Dewpoint Dewpoint Depression Visibility Wind Speed Wind Dir Waves Ship Positions

Comet Ace

Last reported at 2018-Jan-19 14:37 UTC. Time now 2018-Jan-23 00:05 UTC.
Position N 35°00' E 140°26'.

Length 175 m; draft 6.7 m.

Type: Cargo ship. MMSI: 351757000.

Date/timePositionNaut miles runAvg speedWind from/ knotsBaromVisibWave heightAir tempDewpointWater temp
2018-Jan-19 14:37N 35°00' E 140°26'414.5
2018-Jan-19 14:20N 34°58' E 140°22'514.9
2018-Jan-19 14:00N 34°56' E 140°16'814.8
2018-Jan-19 13:29N 34°53' E 140°08'714.2
2018-Jan-19 12:59N 34°49' E 140°00'613.4
2018-Jan-19 12:30N 34°47' E 139°53'713.2
2018-Jan-19 12:00N 34°46' E 139°45'714.6
2018-Jan-19 11:30N 34°53' E 139°41'714.2
2018-Jan-19 11:00N 34°60' E 139°40'714.9
2018-Jan-19 10:30N 35°07' E 139°43'612.3
2018-Jan-19 10:01N 35°12' E 139°46'510.1
2018-Jan-19 09:30N 35°17' E 139°45'611.7
2018-Jan-19 09:01N 35°23' E 139°42'3 5.5
2018-Jan-19 08:31N 35°25' E 139°41'0 0.4
2018-Jan-19 08:00N 35°25' E 139°41'0 0.0
2018-Jan-19 07:30N 35°25' E 139°41'0 0.0
2018-Jan-19 07:00N 35°25' E 139°41'0 0.0
2018-Jan-19 06:30N 35°25' E 139°41'0 0.0
2018-Jan-19 06:00N 35°25' E 139°41'0 0.0
2018-Jan-19 05:30N 35°25' E 139°41'0 0.0
2018-Jan-19 04:57N 35°25' E 139°41'0 0.0
2018-Jan-19 04:30N 35°25' E 139°41'0 0.0
2018-Jan-19 04:00N 35°25' E 139°41'0 0.0
2018-Jan-19 03:30N 35°25' E 139°41'0 0.0
2018-Jan-19 03:00N 35°25' E 139°41'0 0.0
2018-Jan-19 02:30N 35°25' E 139°41'0 0.0
2018-Jan-19 02:00N 35°25' E 139°41'0 0.0
2018-Jan-19 01:30N 35°25' E 139°41'0 0.0
2018-Jan-19 01:00N 35°25' E 139°41'0 0.0
2018-Jan-19 00:30N 35°25' E 139°41'0 0.0
2018-Jan-18 23:57N 35°25' E 139°41'0 0.0
2018-Jan-18 23:30N 35°25' E 139°41'0 0.0
2018-Jan-18 23:00N 35°25' E 139°41'0 0.1
2018-Jan-18 22:30N 35°25' E 139°41'2 4.8
2018-Jan-18 22:00N 35°24' E 139°43'510.4
2018-Jan-18 21:30N 35°18' E 139°44'611.4
2018-Jan-18 21:00N 35°13' E 139°47'4 9.0
2018-Jan-18 20:30N 35°09' E 139°46'510.6
2018-Jan-18 20:00N 35°04' E 139°45'611.1
2018-Jan-18 19:30N 34°58' E 139°43'815.7
2018-Jan-18 19:00N 34°52' E 139°48'7 8.6
2018-Jan-18 18:14N 34°48' E 139°55'4 8.5
2018-Jan-18 17:46N 34°49' E 140°00'415.9
2018-Jan-18 17:30N 34°50' E 140°05'915.1
2018-Jan-18 16:56N 34°50' E 140°15'3 6.0
2018-Jan-18 16:27N 34°50' E 140°12'714.7
2018-Jan-18 15:58N 34°51' E 140°20'  

Dump ship's entire track history